sensor_id;sensor_type;location;lat;lon;timestamp;pressure;altitude;pressure_sealevel;temperature;humidity
28289;BME280;15558;50.874;6.964;2022-07-29T00:02:04;101067.72;;;23.67;46.69
28289;BME280;15558;50.874;6.964;2022-07-29T00:04:30;101067.72;;;23.67;46.70
28289;BME280;15558;50.874;6.964;2022-07-29T00:06:56;101060.63;;;23.61;46.60
28289;BME280;15558;50.874;6.964;2022-07-29T00:09:22;101059.94;;;23.68;47.61
28289;BME280;15558;50.874;6.964;2022-07-29T00:11:51;101052.94;;;23.65;47.52
28289;BME280;15558;50.874;6.964;2022-07-29T00:14:17;101058.66;;;23.65;46.96
28289;BME280;15558;50.874;6.964;2022-07-29T00:16:43;101055.34;;;23.63;47.53
28289;BME280;15558;50.874;6.964;2022-07-29T00:19:09;101048.38;;;23.64;47.58
28289;BME280;15558;50.874;6.964;2022-07-29T00:21:34;101040.09;;;23.60;47.74
28289;BME280;15558;50.874;6.964;2022-07-29T00:24:00;101045.03;;;23.59;47.25
28289;BME280;15558;50.874;6.964;2022-07-29T00:26:26;101046.22;;;23.58;47.06
28289;BME280;15558;50.874;6.964;2022-07-29T00:28:58;101035.56;;;23.59;47.40
28289;BME280;15558;50.874;6.964;2022-07-29T00:31:24;101041.84;;;23.64;47.71
28289;BME280;15558;50.874;6.964;2022-07-29T00:33:51;101043.50;;;23.65;47.33
28289;BME280;15558;50.874;6.964;2022-07-29T00:36:17;101042.66;;;23.64;47.81
28289;BME280;15558;50.874;6.964;2022-07-29T00:38:43;101036.03;;;23.60;47.96
28289;BME280;15558;50.874;6.964;2022-07-29T00:41:11;101031.06;;;23.58;47.91
28289;BME280;15558;50.874;6.964;2022-07-29T00:43:37;101028.19;;;23.58;47.99
28289;BME280;15558;50.874;6.964;2022-07-29T00:46:03;101026.97;;;23.59;48.57
28289;BME280;15558;50.874;6.964;2022-07-29T00:48:29;101022.75;;;23.53;48.27
28289;BME280;15558;50.874;6.964;2022-07-29T00:50:57;101023.66;;;23.57;48.03
28289;BME280;15558;50.874;6.964;2022-07-29T00:53:24;101015.91;;;23.57;48.24
28289;BME280;15558;50.874;6.964;2022-07-29T00:55:50;101017.47;;;23.55;48.54
28289;BME280;15558;50.874;6.964;2022-07-29T00:58:16;101012.91;;;23.54;48.59
28289;BME280;15558;50.874;6.964;2022-07-29T01:00:42;101006.38;;;23.53;47.88
28289;BME280;15558;50.874;6.964;2022-07-29T01:03:08;101000.56;;;23.50;48.26
28289;BME280;15558;50.874;6.964;2022-07-29T01:05:35;100993.56;;;23.47;48.80
28289;BME280;15558;50.874;6.964;2022-07-29T01:08:01;100990.22;;;23.45;48.25
28289;BME280;15558;50.874;6.964;2022-07-29T01:10:28;100988.19;;;23.46;47.55
28289;BME280;15558;50.874;6.964;2022-07-29T01:12:57;100988.63;;;23.48;47.64
28289;BME280;15558;50.874;6.964;2022-07-29T01:15:24;100981.63;;;23.45;48.13
28289;BME280;15558;50.874;6.964;2022-07-29T01:18:14;100988.63;;;23.48;48.49
28289;BME280;15558;50.874;6.964;2022-07-29T01:26:23;100985.78;;;23.48;48.40
28289;BME280;15558;50.874;6.964;2022-07-29T01:29:02;100982.78;;;23.41;48.35
28289;BME280;15558;50.874;6.964;2022-07-29T01:34:50;100990.38;;;23.33;48.59
28289;BME280;15558;50.874;6.964;2022-07-29T01:37:23;100979.69;;;23.30;48.45
28289;BME280;15558;50.874;6.964;2022-07-29T01:39:52;100977.56;;;23.27;48.53
28289;BME280;15558;50.874;6.964;2022-07-29T01:42:44;100980.38;;;23.24;49.12
28289;BME280;15558;50.874;6.964;2022-07-29T01:45:21;100977.06;;;23.22;49.27
28289;BME280;15558;50.874;6.964;2022-07-29T01:50:41;100975.63;;;23.31;49.43
28289;BME280;15558;50.874;6.964;2022-07-29T01:53:14;100974.34;;;23.29;49.11
28289;BME280;15558;50.874;6.964;2022-07-29T01:55:44;100982.84;;;23.25;49.32
28289;BME280;15558;50.874;6.964;2022-07-29T01:58:13;100970.50;;;23.22;49.53
28289;BME280;15558;50.874;6.964;2022-07-29T02:00:40;100968.75;;;23.17;49.17
28289;BME280;15558;50.874;6.964;2022-07-29T02:03:11;100962.97;;;23.14;49.44
28289;BME280;15558;50.874;6.964;2022-07-29T02:05:41;100967.81;;;23.10;49.88
28289;BME280;15558;50.874;6.964;2022-07-29T02:08:09;100955.53;;;23.09;50.23
28289;BME280;15558;50.874;6.964;2022-07-29T02:10:37;100963.25;;;23.09;50.29
28289;BME280;15558;50.874;6.964;2022-07-29T02:13:06;100960.47;;;23.12;49.98
28289;BME280;15558;50.874;6.964;2022-07-29T02:15:34;100964.13;;;23.09;50.03
28289;BME280;15558;50.874;6.964;2022-07-29T02:18:07;100960.03;;;23.10;49.90
28289;BME280;15558;50.874;6.964;2022-07-29T02:20:35;100964.13;;;23.09;49.97
28289;BME280;15558;50.874;6.964;2022-07-29T02:23:03;100954.53;;;23.02;49.80
28289;BME280;15558;50.874;6.964;2022-07-29T02:25:31;100963.66;;;22.89;49.94
28289;BME280;15558;50.874;6.964;2022-07-29T02:27:58;100970.13;;;22.86;49.87
28289;BME280;15558;50.874;6.964;2022-07-29T02:30:27;100959.75;;;22.81;50.09
28289;BME280;15558;50.874;6.964;2022-07-29T02:32:54;100956.28;;;22.72;50.55
28289;BME280;15558;50.874;6.964;2022-07-29T02:35:21;100967.66;;;22.69;50.61
28289;BME280;15558;50.874;6.964;2022-07-29T02:37:48;100964.91;;;22.57;50.81
28289;BME280;15558;50.874;6.964;2022-07-29T02:40:38;100961.69;;;22.58;51.10
28289;BME280;15558;50.874;6.964;2022-07-29T02:43:05;100968.22;;;22.59;50.90
28289;BME280;15558;50.874;6.964;2022-07-29T02:45:33;100957.56;;;22.56;51.11
28289;BME280;15558;50.874;6.964;2022-07-29T02:48:05;100965.53;;;22.47;51.09
28289;BME280;15558;50.874;6.964;2022-07-29T02:50:35;100965.44;;;22.44;50.89
28289;BME280;15558;50.874;6.964;2022-07-29T02:53:07;100976.50;;;22.45;51.92
28289;BME280;15558;50.874;6.964;2022-07-29T02:58:32;100981.31;;;22.41;51.27
28289;BME280;15558;50.874;6.964;2022-07-29T03:01:04;100993.22;;;22.43;51.08
28289;BME280;15558;50.874;6.964;2022-07-29T03:03:36;100996.34;;;22.38;51.76
28289;BME280;15558;50.874;6.964;2022-07-29T03:06:04;100997.09;;;22.35;51.24
28289;BME280;15558;50.874;6.964;2022-07-29T03:08:34;100997.66;;;22.25;51.59
28289;BME280;15558;50.874;6.964;2022-07-29T03:11:00;101007.91;;;22.26;51.32
28289;BME280;15558;50.874;6.964;2022-07-29T03:13:27;101001.81;;;22.28;51.06
28289;BME280;15558;50.874;6.964;2022-07-29T03:15:55;101002.66;;;22.28;51.21
28289;BME280;15558;50.874;6.964;2022-07-29T03:18:21;101000.53;;;22.25;51.08
28289;BME280;15558;50.874;6.964;2022-07-29T03:20:47;100996.94;;;22.28;51.04
28289;BME280;15558;50.874;6.964;2022-07-29T03:23:18;101000.78;;;22.36;51.00
28289;BME280;15558;50.874;6.964;2022-07-29T03:25:44;100993.94;;;22.40;51.31
28289;BME280;15558;50.874;6.964;2022-07-29T03:28:10;100999.66;;;22.40;51.32
28289;BME280;15558;50.874;6.964;2022-07-29T03:30:36;101000.59;;;22.44;50.95
28289;BME280;15558;50.874;6.964;2022-07-29T03:33:02;100999.00;;;22.47;50.90
28289;BME280;15558;50.874;6.964;2022-07-29T03:35:28;100997.25;;;22.42;51.38
28289;BME280;15558;50.874;6.964;2022-07-29T03:37:58;100997.72;;;22.44;51.00
28289;BME280;15558;50.874;6.964;2022-07-29T03:40:49;101003.44;;;22.44;50.71
28289;BME280;15558;50.874;6.964;2022-07-29T03:43:18;101000.88;;;22.39;50.61
28289;BME280;15558;50.874;6.964;2022-07-29T03:45:47;101004.19;;;22.41;50.97
28289;BME280;15558;50.874;6.964;2022-07-29T03:48:17;101009.81;;;22.38;50.98
28289;BME280;15558;50.874;6.964;2022-07-29T03:50:45;100997.81;;;22.32;50.97
28289;BME280;15558;50.874;6.964;2022-07-29T03:53:12;101001.06;;;22.31;51.24
28289;BME280;15558;50.874;6.964;2022-07-29T03:55:48;101006.81;;;22.31;51.20
28289;BME280;15558;50.874;6.964;2022-07-29T03:58:18;101005.88;;;22.27;51.27
28289;BME280;15558;50.874;6.964;2022-07-29T04:00:44;100994.91;;;22.29;50.99
28289;BME280;15558;50.874;6.964;2022-07-29T04:03:12;100999.34;;;22.26;51.03
28289;BME280;15558;50.874;6.964;2022-07-29T04:05:39;101005.78;;;22.23;51.13
28289;BME280;15558;50.874;6.964;2022-07-29T04:08:05;101007.31;;;22.36;50.71
28289;BME280;15558;50.874;6.964;2022-07-29T04:10:31;101005.22;;;22.33;50.40
28289;BME280;15558;50.874;6.964;2022-07-29T04:12:57;101010.03;;;22.29;50.02
28289;BME280;15558;50.874;6.964;2022-07-29T04:15:23;101005.94;;;22.30;50.44
28289;BME280;15558;50.874;6.964;2022-07-29T04:17:49;101012.22;;;22.36;50.17
28289;BME280;15558;50.874;6.964;2022-07-29T04:20:15;101008.63;;;22.39;49.96
28289;BME280;15558;50.874;6.964;2022-07-29T04:22:41;101014.44;;;22.42;49.19
28289;BME280;15558;50.874;6.964;2022-07-29T04:25:07;101011.22;;;22.44;48.68
28289;BME280;15558;50.874;6.964;2022-07-29T04:27:33;101003.44;;;22.44;49.94
28289;BME280;15558;50.874;6.964;2022-07-29T04:29:59;101007.22;;;22.48;49.57
28289;BME280;15558;50.874;6.964;2022-07-29T04:32:25;101008.91;;;22.49;48.84
28289;BME280;15558;50.874;6.964;2022-07-29T04:34:52;101011.81;;;22.52;48.30
28289;BME280;15558;50.874;6.964;2022-07-29T04:37:18;101017.19;;;22.54;48.46
28289;BME280;15558;50.874;6.964;2022-07-29T04:39:44;101019.59;;;22.52;47.51
28289;BME280;15558;50.874;6.964;2022-07-29T04:42:10;101022.81;;;22.51;48.45
28289;BME280;15558;50.874;6.964;2022-07-29T04:44:36;101012.75;;;22.56;48.70
28289;BME280;15558;50.874;6.964;2022-07-29T04:47:02;101017.19;;;22.54;48.83
28289;BME280;15558;50.874;6.964;2022-07-29T04:49:28;101020.50;;;22.56;48.60
28289;BME280;15558;50.874;6.964;2022-07-29T04:51:54;101027.59;;;22.62;47.41
28289;BME280;15558;50.874;6.964;2022-07-29T04:54:20;101030.47;;;22.62;47.94
28289;BME280;15558;50.874;6.964;2022-07-29T04:56:45;101030.38;;;22.58;48.44
28289;BME280;15558;50.874;6.964;2022-07-29T04:59:12;101027.22;;;22.63;49.07
28289;BME280;15558;50.874;6.964;2022-07-29T05:01:37;101036.25;;;22.65;48.85
28289;BME280;15558;50.874;6.964;2022-07-29T05:04:03;101039.56;;;22.67;48.52
28289;BME280;15558;50.874;6.964;2022-07-29T05:06:29;101029.91;;;22.72;48.72
28289;BME280;15558;50.874;6.964;2022-07-29T05:08:55;101033.19;;;22.74;48.30
28289;BME280;15558;50.874;6.964;2022-07-29T05:11:21;101035.31;;;22.77;47.63
28289;BME280;15558;50.874;6.964;2022-07-29T05:13:47;101045.56;;;22.78;48.10
28289;BME280;15558;50.874;6.964;2022-07-29T05:16:13;101048.88;;;22.80;48.00
28289;BME280;15558;50.874;6.964;2022-07-29T05:18:39;101053.41;;;22.81;48.72
28289;BME280;15558;50.874;6.964;2022-07-29T05:21:05;101056.34;;;22.84;48.65
28289;BME280;15558;50.874;6.964;2022-07-29T05:23:31;101050.28;;;22.86;48.20
28289;BME280;15558;50.874;6.964;2022-07-29T05:25:57;101046.28;;;22.90;48.31
28289;BME280;15558;50.874;6.964;2022-07-29T05:28:23;101045.94;;;22.91;48.33
28289;BME280;15558;50.874;6.964;2022-07-29T05:30:49;101042.75;;;22.96;48.12
28289;BME280;15558;50.874;6.964;2022-07-29T05:33:15;101048.56;;;23.00;48.44
28289;BME280;15558;50.874;6.964;2022-07-29T05:35:41;101043.41;;;23.05;48.06
28289;BME280;15558;50.874;6.964;2022-07-29T05:38:07;101058.09;;;23.04;48.47
28289;BME280;15558;50.874;6.964;2022-07-29T05:40:33;101062.31;;;23.10;48.42
28289;BME280;15558;50.874;6.964;2022-07-29T05:42:59;101067.22;;;23.09;47.62
28289;BME280;15558;50.874;6.964;2022-07-29T05:45:25;101082.47;;;23.13;47.70
28289;BME280;15558;50.874;6.964;2022-07-29T05:47:51;101083.19;;;23.10;47.75
28289;BME280;15558;50.874;6.964;2022-07-29T05:50:17;101092.25;;;23.12;47.70
28289;BME280;15558;50.874;6.964;2022-07-29T05:52:43;101088.59;;;23.15;46.97
28289;BME280;15558;50.874;6.964;2022-07-29T05:55:09;101105.72;;;23.12;47.53
28289;BME280;15558;50.874;6.964;2022-07-29T05:57:35;101103.03;;;23.19;47.32
28289;BME280;15558;50.874;6.964;2022-07-29T06:00:01;101101.97;;;23.26;46.89
28289;BME280;15558;50.874;6.964;2022-07-29T06:02:28;101104.19;;;23.33;46.79
28289;BME280;15558;50.874;6.964;2022-07-29T06:04:54;101112.41;;;23.34;46.59
28289;BME280;15558;50.874;6.964;2022-07-29T06:07:20;101111.63;;;23.37;46.53
28289;BME280;15558;50.874;6.964;2022-07-29T06:09:46;101127.25;;;23.40;46.60
28289;BME280;15558;50.874;6.964;2022-07-29T06:12:12;101122.44;;;23.44;46.92
28289;BME280;15558;50.874;6.964;2022-07-29T06:14:38;101123.66;;;23.43;46.89
28289;BME280;15558;50.874;6.964;2022-07-29T06:17:04;101126.16;;;23.44;47.70
28289;BME280;15558;50.874;6.964;2022-07-29T06:19:31;101119.56;;;23.44;46.92
28289;BME280;15558;50.874;6.964;2022-07-29T06:21:57;101132.06;;;23.36;47.70
28289;BME280;15558;50.874;6.964;2022-07-29T06:24:22;101116.75;;;23.28;47.23
28289;BME280;15558;50.874;6.964;2022-07-29T06:26:48;101134.78;;;23.29;47.53
28289;BME280;15558;50.874;6.964;2022-07-29T06:29:14;101123.63;;;23.24;48.10
28289;BME280;15558;50.874;6.964;2022-07-29T06:31:40;101128.44;;;23.20;48.04
28289;BME280;15558;50.874;6.964;2022-07-29T06:34:06;101122.72;;;23.20;48.11
28289;BME280;15558;50.874;6.964;2022-07-29T06:36:36;101114.31;;;23.12;48.93
28289;BME280;15558;50.874;6.964;2022-07-29T06:39:08;101114.31;;;23.12;49.49
28289;BME280;15558;50.874;6.964;2022-07-29T06:41:35;101121.69;;;23.13;49.25
28289;BME280;15558;50.874;6.964;2022-07-29T06:44:01;101120.97;;;23.16;49.07
28289;BME280;15558;50.874;6.964;2022-07-29T06:46:27;101121.78;;;23.16;48.17
28289;BME280;15558;50.874;6.964;2022-07-29T06:48:53;101137.94;;;23.24;48.84
28289;BME280;15558;50.874;6.964;2022-07-29T06:51:20;101125.91;;;23.34;49.37
28289;BME280;15558;50.874;6.964;2022-07-29T06:53:46;101116.53;;;23.37;49.02
28289;BME280;15558;50.874;6.964;2022-07-29T06:56:12;101113.22;;;23.35;49.38
28289;BME280;15558;50.874;6.964;2022-07-29T06:58:39;101109.91;;;23.33;49.26
28289;BME280;15558;50.874;6.964;2022-07-29T07:01:06;101100.84;;;23.31;49.72
28289;BME280;15558;50.874;6.964;2022-07-29T07:03:32;101109.81;;;23.29;49.38
28289;BME280;15558;50.874;6.964;2022-07-29T07:05:58;101111.63;;;23.37;49.57
28289;BME280;15558;50.874;6.964;2022-07-29T07:08:24;101121.25;;;23.45;49.46
28289;BME280;15558;50.874;6.964;2022-07-29T07:10:51;101125.75;;;23.46;49.18
28289;BME280;15558;50.874;6.964;2022-07-29T07:13:18;101125.94;;;23.53;48.93
28289;BME280;15558;50.874;6.964;2022-07-29T07:15:44;101130.34;;;23.65;49.06
28289;BME280;15558;50.874;6.964;2022-07-29T07:18:11;101120.06;;;23.64;47.98
28289;BME280;15558;50.874;6.964;2022-07-29T07:20:37;101111.06;;;23.85;47.96
28289;BME280;15558;50.874;6.964;2022-07-29T07:23:03;101094.53;;;23.97;48.74
28289;BME280;15558;50.874;6.964;2022-07-29T07:25:30;101097.59;;;24.07;48.97
28289;BME280;15558;50.874;6.964;2022-07-29T07:27:56;101107.59;;;23.95;48.81
28289;BME280;15558;50.874;6.964;2022-07-29T07:30:22;101115.84;;;23.96;49.26
28289;BME280;15558;50.874;6.964;2022-07-29T07:32:48;101133.41;;;23.95;49.46
28289;BME280;15558;50.874;6.964;2022-07-29T07:35:14;101130.09;;;23.93;49.26
28289;BME280;15558;50.874;6.964;2022-07-29T07:37:40;101140.56;;;23.85;48.99
28289;BME280;15558;50.874;6.964;2022-07-29T07:40:08;101137.13;;;23.76;49.26
28289;BME280;15558;50.874;6.964;2022-07-29T07:42:34;101137.88;;;23.73;49.04
28289;BME280;15558;50.874;6.964;2022-07-29T07:45:00;101138.16;;;23.68;50.14
28289;BME280;15558;50.874;6.964;2022-07-29T07:47:26;101145.53;;;23.51;50.78
28289;BME280;15558;50.874;6.964;2022-07-29T07:49:52;101141.81;;;23.50;50.99
28289;BME280;15558;50.874;6.964;2022-07-29T07:52:20;101137.09;;;23.58;51.20
28289;BME280;15558;50.874;6.964;2022-07-29T07:54:47;101137.09;;;23.58;51.29
28289;BME280;15558;50.874;6.964;2022-07-29T07:57:14;101135.06;;;23.58;51.49
28289;BME280;15558;50.874;6.964;2022-07-29T07:59:41;101133.84;;;23.40;51.64
28289;BME280;15558;50.874;6.964;2022-07-29T08:02:08;101121.50;;;23.55;51.75
28289;BME280;15558;50.874;6.964;2022-07-29T08:04:34;101118.53;;;23.52;51.92
28289;BME280;15558;50.874;6.964;2022-07-29T08:07:00;101112.13;;;23.58;52.05
28289;BME280;15558;50.874;6.964;2022-07-29T08:09:27;101115.53;;;23.63;51.98
28289;BME280;15558;50.874;6.964;2022-07-29T08:11:53;101103.25;;;23.63;51.82
28289;BME280;15558;50.874;6.964;2022-07-29T08:14:19;101109.81;;;23.63;52.41
28289;BME280;15558;50.874;6.964;2022-07-29T08:16:45;101104.13;;;23.67;52.09
28289;BME280;15558;50.874;6.964;2022-07-29T08:19:11;101110.25;;;23.65;52.05
28289;BME280;15558;50.874;6.964;2022-07-29T08:21:38;101109.50;;;23.68;52.70
28289;BME280;15558;50.874;6.964;2022-07-29T08:24:05;101111.16;;;23.69;52.95
28289;BME280;15558;50.874;6.964;2022-07-29T08:26:50;101101.81;;;23.72;52.83
28289;BME280;15558;50.874;6.964;2022-07-29T08:29:16;101108.31;;;23.69;52.89
28289;BME280;15558;50.874;6.964;2022-07-29T08:31:42;101111.84;;;23.63;53.07
28289;BME280;15558;50.874;6.964;2022-07-29T08:34:08;101110.09;;;23.59;53.28
28289;BME280;15558;50.874;6.964;2022-07-29T08:36:34;101119.53;;;23.59;52.64
28289;BME280;15558;50.874;6.964;2022-07-29T08:39:01;101117.13;;;23.61;52.95
28289;BME280;15558;50.874;6.964;2022-07-29T08:41:28;101129.56;;;23.68;53.12
28289;BME280;15558;50.874;6.964;2022-07-29T08:43:54;101118.56;;;23.70;52.88
28289;BME280;15558;50.874;6.964;2022-07-29T08:46:21;101123.91;;;23.72;52.90
28289;BME280;15558;50.874;6.964;2022-07-29T08:54:34;101119.91;;;23.76;52.92
28289;BME280;15558;50.874;6.964;2022-07-29T08:57:01;101126.69;;;23.87;52.82
28289;BME280;15558;50.874;6.964;2022-07-29T09:02:03;101118.91;;;24.25;52.04
28289;BME280;15558;50.874;6.964;2022-07-29T09:04:33;101117.25;;;24.46;51.94
28289;BME280;15558;50.874;6.964;2022-07-29T09:07:04;101119.06;;;24.80;51.41
28289;BME280;15558;50.874;6.964;2022-07-29T09:09:30;101121.59;;;25.07;50.77
28289;BME280;15558;50.874;6.964;2022-07-29T09:11:56;101122.56;;;25.18;50.27
28289;BME280;15558;50.874;6.964;2022-07-29T09:14:22;101123.38;;;25.15;49.99
28289;BME280;15558;50.874;6.964;2022-07-29T09:16:55;101111.34;;;25.06;49.31
28289;BME280;15558;50.874;6.964;2022-07-29T09:19:27;101118.75;;;25.36;49.87
28289;BME280;15558;50.874;6.964;2022-07-29T09:21:54;101119.66;;;25.69;48.56
28289;BME280;15558;50.874;6.964;2022-07-29T09:24:25;101112.56;;;25.60;47.69
28289;BME280;15558;50.874;6.964;2022-07-29T09:26:52;101111.44;;;25.42;48.21
28289;BME280;15558;50.874;6.964;2022-07-29T09:29:23;101099.38;;;25.55;49.15
28289;BME280;15558;50.874;6.964;2022-07-29T09:31:51;101112.66;;;25.67;48.84
28289;BME280;15558;50.874;6.964;2022-07-29T09:34:28;101116.03;;;25.75;48.60
28289;BME280;15558;50.874;6.964;2022-07-29T09:36:55;101110.72;;;25.74;48.10
28289;BME280;15558;50.874;6.964;2022-07-29T09:41:55;101117.09;;;25.93;48.64
28289;BME280;15558;50.874;6.964;2022-07-29T09:44:22;101116.31;;;25.96;48.17
28289;BME280;15558;50.874;6.964;2022-07-29T09:47:02;101117.16;;;25.97;47.76
28289;BME280;15558;50.874;6.964;2022-07-29T09:49:33;101114.22;;;25.93;47.30
28289;BME280;15558;50.874;6.964;2022-07-29T09:52:09;101116.31;;;25.96;46.95
28289;BME280;15558;50.874;6.964;2022-07-29T09:54:37;101112.28;;;26.04;46.85
28289;BME280;15558;50.874;6.964;2022-07-29T09:57:07;101122.16;;;26.03;47.36
28289;BME280;15558;50.874;6.964;2022-07-29T09:59:36;101120.09;;;26.04;47.25
28289;BME280;15558;50.874;6.964;2022-07-29T10:02:11;101117.63;;;26.02;47.70
28289;BME280;15558;50.874;6.964;2022-07-29T10:04:41;101115.00;;;26.23;46.53
28289;BME280;15558;50.874;6.964;2022-07-29T10:07:08;101119.34;;;26.43;45.27
28289;BME280;15558;50.874;6.964;2022-07-29T10:09:35;101109.56;;;26.54;44.74
28289;BME280;15558;50.874;6.964;2022-07-29T10:12:12;101120.22;;;26.46;45.58
28289;BME280;15558;50.874;6.964;2022-07-29T10:14:42;101110.81;;;26.56;45.43
28289;BME280;15558;50.874;6.964;2022-07-29T10:17:09;101113.44;;;26.72;46.54
28289;BME280;15558;50.874;6.964;2022-07-29T10:19:37;101106.13;;;26.81;46.28
28289;BME280;15558;50.874;6.964;2022-07-29T10:22:06;101106.06;;;26.74;45.26
28289;BME280;15558;50.874;6.964;2022-07-29T10:24:33;101109.19;;;26.98;44.81
28289;BME280;15558;50.874;6.964;2022-07-29T10:27:00;101099.84;;;27.18;44.53
28289;BME280;15558;50.874;6.964;2022-07-29T10:29:27;101102.00;;;27.32;43.80
28289;BME280;15558;50.874;6.964;2022-07-29T10:32:11;101098.81;;;27.47;44.20
28289;BME280;15558;50.874;6.964;2022-07-29T10:35:06;101101.34;;;27.52;43.05
28289;BME280;15558;50.874;6.964;2022-07-29T10:40:17;101089.13;;;27.93;41.51
28289;BME280;15558;50.874;6.964;2022-07-29T10:43:26;101095.19;;;27.64;41.61
28289;BME280;15558;50.874;6.964;2022-07-29T10:45:57;101099.88;;;27.96;41.97
28289;BME280;15558;50.874;6.964;2022-07-29T10:48:23;101098.34;;;28.23;42.70
28289;BME280;15558;50.874;6.964;2022-07-29T10:50:53;101089.28;;;28.45;41.22
28289;BME280;15558;50.874;6.964;2022-07-29T10:53:25;101092.22;;;28.59;40.28
28289;BME280;15558;50.874;6.964;2022-07-29T10:59:32;101086.03;;;29.19;38.28
28289;BME280;15558;50.874;6.964;2022-07-29T11:01:58;101086.88;;;29.16;37.49
28289;BME280;15558;50.874;6.964;2022-07-29T11:07:09;101087.59;;;28.16;38.87
28289;BME280;15558;50.874;6.964;2022-07-29T11:09:35;101083.91;;;28.29;38.88
28289;BME280;15558;50.874;6.964;2022-07-29T11:12:01;101091.41;;;28.58;38.05
28289;BME280;15558;50.874;6.964;2022-07-29T11:14:59;101081.06;;;28.43;38.15
28289;BME280;15558;50.874;6.964;2022-07-29T11:17:27;101091.00;;;28.66;37.99
28289;BME280;15558;50.874;6.964;2022-07-29T11:22:56;101077.38;;;29.01;36.52
28289;BME280;15558;50.874;6.964;2022-07-29T11:25:22;101079.03;;;29.20;36.21
28289;BME280;15558;50.874;6.964;2022-07-29T11:27:48;101080.69;;;28.83;36.63
28289;BME280;15558;50.874;6.964;2022-07-29T11:30:14;101081.50;;;29.04;36.48
28289;BME280;15558;50.874;6.964;2022-07-29T11:32:43;101083.56;;;28.86;36.11
28289;BME280;15558;50.874;6.964;2022-07-29T11:35:21;101079.03;;;28.64;36.36
28289;BME280;15558;50.874;6.964;2022-07-29T11:38:26;101083.97;;;28.98;35.98
28289;BME280;15558;50.874;6.964;2022-07-29T11:43:54;101074.47;;;29.12;35.68
28289;BME280;15558;50.874;6.964;2022-07-29T11:46:46;101078.22;;;29.16;36.66
28289;BME280;15558;50.874;6.964;2022-07-29T11:49:22;101079.34;;;29.49;35.77
28289;BME280;15558;50.874;6.964;2022-07-29T11:51:53;101072.31;;;29.57;34.84
28289;BME280;15558;50.874;6.964;2022-07-29T11:54:30;101074.84;;;29.28;34.90
28289;BME280;15558;50.874;6.964;2022-07-29T11:56:58;101075.69;;;29.31;34.24
28289;BME280;15558;50.874;6.964;2022-07-29T11:59:24;101071.56;;;29.15;34.36
28289;BME280;15558;50.874;6.964;2022-07-29T12:04:19;101075.63;;;29.52;33.83
28289;BME280;15558;50.874;6.964;2022-07-29T12:06:53;101073.66;;;29.01;34.39
28289;BME280;15558;50.874;6.964;2022-07-29T12:09:20;101084.78;;;29.02;35.00
28289;BME280;15558;50.874;6.964;2022-07-29T12:11:47;101079.00;;;29.06;35.20
28289;BME280;15558;50.874;6.964;2022-07-29T12:14:32;101075.28;;;28.43;36.57
28289;BME280;15558;50.874;6.964;2022-07-29T12:16:59;101083.06;;;28.15;37.39
28289;BME280;15558;50.874;6.964;2022-07-29T12:19:26;101081.78;;;28.09;37.19
28289;BME280;15558;50.874;6.964;2022-07-29T12:21:54;101079.31;;;28.11;37.99
28289;BME280;15558;50.874;6.964;2022-07-29T12:24:21;101080.19;;;28.29;37.08
28289;BME280;15558;50.874;6.964;2022-07-29T12:26:50;101076.06;;;28.30;37.13
28289;BME280;15558;50.874;6.964;2022-07-29T12:29:17;101074.44;;;28.53;37.07
28289;BME280;15558;50.874;6.964;2022-07-29T12:31:44;101079.03;;;28.68;36.83
28289;BME280;15558;50.874;6.964;2022-07-29T12:34:11;101074.09;;;28.68;36.40
28289;BME280;15558;50.874;6.964;2022-07-29T12:36:38;101071.16;;;28.61;36.63
28289;BME280;15558;50.874;6.964;2022-07-29T12:39:04;101079.03;;;28.78;36.88
28289;BME280;15558;50.874;6.964;2022-07-29T12:41:30;101072.41;;;28.95;36.13
28289;BME280;15558;50.874;6.964;2022-07-29T12:43:56;101067.88;;;28.94;35.88
28289;BME280;15558;50.874;6.964;2022-07-29T12:46:22;101069.09;;;29.10;35.32
28289;BME280;15558;50.874;6.964;2022-07-29T12:48:53;101067.00;;;29.38;35.04
28289;BME280;15558;50.874;6.964;2022-07-29T12:51:37;101059.53;;;29.37;34.98
28289;BME280;15558;50.874;6.964;2022-07-29T12:54:12;101063.28;;;29.31;35.29
28289;BME280;15558;50.874;6.964;2022-07-29T12:56:40;101067.81;;;29.42;34.73
28289;BME280;15558;50.874;6.964;2022-07-29T12:59:21;101066.16;;;29.38;34.37
28289;BME280;15558;50.874;6.964;2022-07-29T13:01:49;101057.94;;;29.26;34.34
28289;BME280;15558;50.874;6.964;2022-07-29T13:04:28;101060.00;;;29.19;34.46
28289;BME280;15558;50.874;6.964;2022-07-29T13:06:59;101058.72;;;29.33;34.07
28289;BME280;15558;50.874;6.964;2022-07-29T13:09:37;101057.09;;;29.05;33.99
28289;BME280;15558;50.874;6.964;2022-07-29T13:12:08;101055.47;;;29.04;33.81
28289;BME280;15558;50.874;6.964;2022-07-29T13:14:47;101053.81;;;28.93;33.68
28289;BME280;15558;50.874;6.964;2022-07-29T13:17:18;101059.59;;;29.06;34.22
28289;BME280;15558;50.874;6.964;2022-07-29T13:19:50;101062.09;;;28.97;33.78
28289;BME280;15558;50.874;6.964;2022-07-29T13:22:22;101061.69;;;28.95;33.76
28289;BME280;15558;50.874;6.964;2022-07-29T13:24:59;101074.47;;;29.01;33.64
28289;BME280;15558;50.874;6.964;2022-07-29T13:27:29;101065.81;;;28.98;33.39
28289;BME280;15558;50.874;6.964;2022-07-29T13:29:58;101065.78;;;28.94;34.26
28289;BME280;15558;50.874;6.964;2022-07-29T13:32:27;101055.91;;;28.99;34.21
28289;BME280;15558;50.874;6.964;2022-07-29T13:34:55;101051.38;;;28.91;33.78
28289;BME280;15558;50.874;6.964;2022-07-29T13:37:21;101062.91;;;28.84;33.75
28289;BME280;15558;50.874;6.964;2022-07-29T13:39:47;101056.31;;;28.77;33.93
28289;BME280;15558;50.874;6.964;2022-07-29T13:42:13;101058.78;;;28.85;34.20